createdAt,value
2016-06-23T00:00:41.053Z,0
2016-06-23T00:01:26.798Z,0
2016-06-23T00:02:27.426Z,0
2016-06-23T00:03:27.459Z,0
2016-06-23T00:04:42.359Z,0
2016-06-23T00:05:26.905Z,0
2016-06-23T00:06:26.922Z,0
2016-06-23T00:08:26.382Z,0
2016-06-23T00:09:27.006Z,0
2016-06-23T00:10:26.480Z,0
2016-06-23T00:11:56.208Z,0
2016-06-23T00:12:27.705Z,0
2016-06-23T00:13:28.322Z,0
2016-06-23T00:14:27.754Z,0
2016-06-23T00:15:42.051Z,0
2016-06-23T00:16:28.410Z,0
2016-06-23T00:17:27.207Z,0
2016-06-23T00:18:42.124Z,0
2016-06-23T00:19:27.262Z,0
2016-06-23T00:20:27.914Z,0
2016-06-23T00:21:27.928Z,0
2016-06-23T00:22:27.352Z,0
2016-06-23T00:23:26.783Z,0
2016-06-23T00:24:28.613Z,0
2016-06-23T00:25:27.434Z,0
2016-06-23T00:26:28.047Z,0
2016-06-23T00:27:28.675Z,0
2016-06-23T00:28:42.995Z,0
2016-06-23T00:29:27.527Z,0
2016-06-23T00:30:28.767Z,0
2016-06-23T00:31:28.797Z,0
2016-06-23T00:33:27.611Z,0
2016-06-23T00:34:27.055Z,0
2016-06-23T00:35:27.069Z,0
2016-06-23T00:36:27.698Z,0
2016-06-23T00:37:28.335Z,0
2016-06-23T00:38:28.358Z,0
2016-06-23T00:39:28.388Z,0
2016-06-23T00:40:28.421Z,0
2016-06-23T00:41:27.218Z,0
2016-06-23T00:42:27.870Z,0
2016-06-23T00:43:42.752Z,0
2016-06-23T00:44:43.406Z,0
2016-06-23T00:45:28.537Z,0
2016-06-23T00:46:27.339Z,0
2016-06-23T00:48:29.222Z,0
2016-06-23T00:49:28.024Z,0
2016-06-23T00:50:42.971Z,0
2016-06-23T00:52:27.495Z,0
2016-06-23T00:53:28.138Z,0
2016-06-23T00:54:28.166Z,0
2016-06-23T00:55:28.786Z,0
2016-06-23T00:56:43.714Z,0
2016-06-23T00:58:28.257Z,0
2016-06-23T00:59:58.051Z,0
2016-06-23T01:00:28.936Z,0
2016-06-23T01:01:29.579Z,0
2016-06-23T01:03:29.630Z,0
2016-06-23T01:04:28.423Z,0
2016-06-23T01:05:27.865Z,0
2016-06-23T01:06:28.490Z,0
2016-06-23T01:07:28.605Z,0
2016-06-23T01:08:29.744Z,0
2016-06-23T01:09:29.893Z,0
2016-06-23T01:10:29.798Z,0
2016-06-23T01:11:28.828Z,0
2016-06-23T01:12:28.288Z,0
2016-06-23T01:13:29.016Z,0
2016-06-23T01:14:28.717Z,0
2016-06-23T01:15:42.974Z,0
2016-06-23T01:16:28.728Z,0
2016-06-23T01:17:29.363Z,0
2016-06-23T01:18:28.178Z,0
2016-06-23T01:19:29.409Z,0
2016-06-23T01:20:28.222Z,0
2016-06-23T01:21:28.246Z,0
2016-06-23T01:22:29.486Z,0
2016-06-23T01:23:28.902Z,0
2016-06-23T01:24:29.551Z,0
2016-06-23T01:25:28.351Z,0
2016-06-23T01:26:28.987Z,0
2016-06-23T01:27:43.885Z,0
2016-06-23T01:28:30.241Z,0
2016-06-23T01:29:29.065Z,0
2016-06-23T01:30:30.307Z,0
2016-06-23T01:31:44.609Z,0
2016-06-23T01:32:29.139Z,0
2016-06-23T01:33:29.162Z,0
2016-06-23T01:34:29.190Z,0
2016-06-23T01:35:44.710Z,0
2016-06-23T01:37:28.658Z,0
2016-06-23T01:39:30.519Z,0
2016-06-23T01:40:28.735Z,0
2016-06-23T01:41:29.971Z,0
2016-06-23T01:43:30.032Z,0
2016-06-23T01:44:29.450Z,0
2016-06-23T01:45:28.852Z,0
2016-06-23T01:46:43.763Z,0
2016-06-23T01:49:29.572Z,0
2016-06-23T01:50:44.474Z,0
2016-06-23T01:51:30.218Z,4
2016-06-23T01:52:30.242Z,4
2016-06-23T01:53:30.897Z,4
2016-06-23T01:54:44.578Z,4
2016-06-23T01:55:29.721Z,0
2016-06-23T01:56:29.748Z,0
2016-06-23T01:57:29.762Z,4
2016-06-23T01:58:31.022Z,4
2016-06-23T01:59:31.051Z,0
2016-06-23T02:00:44.722Z,4
2016-06-23T02:01:29.870Z,4
2016-06-23T02:02:30.498Z,4
2016-06-23T02:04:29.969Z,8
2016-06-23T02:05:45.474Z,8
2016-06-23T02:06:31.223Z,12
2016-06-23T02:07:30.031Z,12
2016-06-23T02:08:44.985Z,12
2016-06-23T02:09:30.697Z,12
2016-06-23T02:10:30.102Z,16
2016-06-23T02:11:30.742Z,16
2016-06-23T02:12:29.544Z,16
2016-06-23T02:13:30.794Z,16
2016-06-23T02:14:30.816Z,24
2016-06-23T02:15:29.643Z,24
2016-06-23T02:16:31.468Z,28
2016-06-23T02:17:31.518Z,28
2016-06-23T02:18:45.197Z,36
2016-06-23T02:19:30.338Z,36
2016-06-23T02:20:30.366Z,40
2016-06-23T02:21:30.382Z,48
2016-06-23T02:22:30.411Z,52
2016-06-23T02:24:30.458Z,60
2016-06-23T02:26:30.496Z,76
2016-06-23T02:27:31.763Z,80
2016-06-23T02:28:30.559Z,88
2016-06-23T02:29:31.197Z,96
2016-06-23T02:30:30.610Z,108
2016-06-23T02:31:31.847Z,116
2016-06-23T02:32:31.266Z,124
2016-06-23T02:33:30.063Z,136
2016-06-23T02:34:45.590Z,152
2016-06-23T02:35:31.965Z,160
2016-06-23T02:36:45.644Z,176
2016-06-23T02:37:31.407Z,188
2016-06-23T02:38:32.047Z,200
2016-06-23T02:39:30.838Z,216
2016-06-23T02:40:31.476Z,228
2016-06-23T02:41:31.511Z,244
2016-06-23T02:42:31.532Z,260
2016-06-23T02:43:30.949Z,280
2016-06-23T02:44:31.594Z,296
2016-06-23T02:45:30.377Z,320
2016-06-23T02:47:31.036Z,356
2016-06-23T02:48:31.052Z,380
2016-06-23T02:49:32.313Z,408
2016-06-23T02:50:46.614Z,436
2016-06-23T02:51:46.631Z,460
2016-06-23T02:52:31.167Z,480
2016-06-23T02:53:31.811Z,508
2016-06-23T02:54:31.830Z,536
2016-06-23T02:55:30.632Z,564
2016-06-23T02:56:31.881Z,596
2016-06-23T02:57:31.294Z,628
2016-06-23T02:58:30.731Z,660
2016-06-23T02:59:31.957Z,696
2016-06-23T03:00:31.379Z,728
2016-06-23T03:01:32.018Z,764
2016-06-23T03:02:30.821Z,800
2016-06-23T03:03:32.046Z,840
2016-06-23T03:04:46.355Z,888
2016-06-23T03:05:32.121Z,912
2016-06-23T03:06:46.398Z,964
2016-06-23T03:07:32.167Z,996
2016-06-23T03:08:30.957Z,1036
2016-06-23T03:09:32.191Z,1080
2016-06-23T03:10:47.110Z,1132
2016-06-23T03:11:32.265Z,1164
2016-06-23T03:12:32.273Z,1208
2016-06-23T03:13:32.295Z,1252
2016-06-23T03:14:31.742Z,1296
2016-06-23T03:15:32.355Z,1344
2016-06-23T03:16:46.679Z,1400
2016-06-23T03:17:31.799Z,1436
2016-06-23T03:18:31.225Z,1480
2016-06-23T03:19:33.059Z,1528
2016-06-23T03:20:31.862Z,1576
2016-06-23T03:21:46.783Z,1640
2016-06-23T03:22:33.135Z,1676
2016-06-23T03:23:32.565Z,1724
2016-06-23T03:24:31.977Z,1772
2016-06-23T03:25:31.415Z,1820
2016-06-23T03:26:46.293Z,1880
2016-06-23T03:27:32.065Z,1916
2016-06-23T03:28:32.066Z,1960
2016-06-23T03:30:32.721Z,2056
2016-06-23T03:31:32.755Z,2108
2016-06-23T03:32:31.565Z,2156
2016-06-23T03:33:32.816Z,2204
2016-06-23T03:34:33.471Z,2256
2016-06-23T03:35:32.852Z,2300
2016-06-23T03:36:32.282Z,2344
2016-06-23T03:37:32.911Z,2396
2016-06-23T03:38:32.323Z,2476
2016-06-23T03:39:31.731Z,2536
2016-06-23T03:40:32.992Z,2616
2016-06-23T03:41:31.805Z,2660
2016-06-23T03:42:31.815Z,2740
2016-06-23T03:43:46.716Z,2808
2016-06-23T03:44:33.693Z,2916
2016-06-23T03:45:32.501Z,3116
2016-06-23T03:46:33.138Z,2936
2016-06-23T03:47:47.441Z,2960
2016-06-23T03:48:33.798Z,2968
2016-06-23T03:49:33.213Z,2972
2016-06-23T03:50:33.251Z,3020
2016-06-23T03:52:33.310Z,3140
2016-06-23T03:53:47.573Z,3244
2016-06-23T03:54:32.116Z,3256
2016-06-23T03:55:32.740Z,3268
2016-06-23T03:56:32.780Z,3680
2016-06-23T03:57:32.210Z,4400
2016-06-23T03:58:47.102Z,6488
2016-06-23T03:59:33.450Z,5356
2016-06-23T04:00:32.262Z,4720
2016-06-23T04:01:32.931Z,5344
2016-06-23T04:02:33.549Z,4544
2016-06-23T04:03:33.574Z,3924
2016-06-23T04:04:33.001Z,3900
2016-06-23T04:05:32.390Z,3832
2016-06-23T04:06:33.644Z,3812
2016-06-23T04:07:33.076Z,3872
2016-06-23T04:08:33.078Z,5020
2016-06-23T04:09:47.992Z,14240
2016-06-23T04:10:33.744Z,23040
2016-06-23T04:12:33.184Z,48096
2016-06-23T04:13:33.824Z,50208
2016-06-23T04:14:33.860Z,50432
2016-06-23T04:15:33.872Z,51328
2016-06-23T04:16:34.498Z,51232
2016-06-23T04:17:32.693Z,55168
2016-06-23T04:18:33.950Z,57664
2016-06-23T04:19:33.363Z,56768
2016-06-23T04:20:33.385Z,59488
2016-06-23T04:21:34.039Z,60128
2016-06-23T04:22:33.452Z,58272
2016-06-23T04:23:33.461Z,56512
2016-06-23T04:24:34.123Z,58208
2016-06-23T04:25:49.045Z,58176
2016-06-23T04:26:47.829Z,59840
2016-06-23T04:27:47.875Z,59808
2016-06-23T04:28:47.894Z,61568
2016-06-23T04:29:34.255Z,61952
2016-06-23T04:30:49.172Z,61856
2016-06-23T04:31:33.708Z,61632
2016-06-23T04:32:33.746Z,65440
2016-06-23T04:33:33.823Z,65856
2016-06-23T04:34:35.022Z,65216
2016-06-23T04:35:34.439Z,64640
2016-06-23T04:36:34.475Z,67232
2016-06-23T04:37:34.509Z,69696
2016-06-23T04:38:33.934Z,69152
2016-06-23T04:39:33.968Z,69120
2016-06-23T04:40:33.989Z,68672
2016-06-23T04:41:48.907Z,71584
2016-06-23T04:42:34.068Z,70336
2016-06-23T04:43:48.966Z,72256
2016-06-23T04:44:33.508Z,72352
2016-06-23T04:45:34.770Z,70656
2016-06-23T04:47:34.211Z,76960
2016-06-23T04:48:34.856Z,76736
2016-06-23T04:49:35.494Z,73344
2016-06-23T04:50:49.192Z,73568
2016-06-23T04:51:48.610Z,76384
2016-06-23T04:52:34.982Z,78400
2016-06-23T04:53:35.019Z,78688
2016-06-23T04:54:33.824Z,77088
2016-06-23T04:55:33.858Z,77216
2016-06-23T04:56:50.008Z,78624
2016-06-23T04:57:33.942Z,78144
2016-06-23T04:58:34.571Z,81280
2016-06-23T04:59:34.600Z,77696
2016-06-23T05:00:34.668Z,80192
2016-06-23T05:01:34.666Z,79936
2016-06-23T05:02:35.910Z,83840
2016-06-23T05:03:34.735Z,80160
2016-06-23T05:04:34.766Z,78368
2016-06-23T05:05:35.417Z,74176
2016-06-23T05:06:34.845Z,73440
2016-06-23T05:07:34.266Z,77504
2016-06-23T05:08:49.179Z,81856
2016-06-23T05:09:35.543Z,83584
2016-06-23T05:10:50.481Z,90272
2016-06-23T05:11:35.613Z,88928
2016-06-23T05:12:35.643Z,89440
2016-06-23T05:13:35.075Z,89792
2016-06-23T05:14:35.126Z,88480
2016-06-23T05:15:50.039Z,85312
2016-06-23T05:16:35.812Z,83936
2016-06-23T05:17:35.840Z,85440
2016-06-23T05:18:36.485Z,85664
2016-06-23T05:19:36.577Z,85120
2016-06-23T05:20:35.944Z,85664
2016-06-23T05:21:35.973Z,89728
2016-06-23T05:22:36.626Z,89920
2016-06-23T05:23:34.835Z,86752
2016-06-23T05:24:36.080Z,83744
2016-06-23T05:25:34.902Z,85152
2016-06-23T05:26:36.153Z,88384
2016-06-23T05:27:36.802Z,90112
2016-06-23T05:28:51.130Z,87712
2016-06-23T05:29:35.642Z,86976
2016-06-23T05:30:35.690Z,89856
2016-06-23T05:31:36.368Z,88928
2016-06-23T05:32:36.379Z,86272
2016-06-23T05:33:35.199Z,88608
2016-06-23T05:34:37.064Z,90720
2016-06-23T05:35:35.887Z,93152
2016-06-23T05:36:36.513Z,89632
2016-06-23T05:37:35.947Z,90432
2016-06-23T05:38:35.373Z,94816
2016-06-23T05:39:36.009Z,94720
2016-06-23T05:41:36.082Z,82560
2016-06-23T05:42:36.117Z,82784
2016-06-23T05:43:36.155Z,85920
2016-06-23T05:44:51.080Z,90016
2016-06-23T05:45:51.125Z,89664
2016-06-23T05:46:36.271Z,89728
2016-06-23T05:47:36.307Z,90464
2016-06-23T05:48:36.344Z,87200
2016-06-23T05:49:36.389Z,89280
2016-06-23T05:50:36.417Z,91328
2016-06-23T05:51:36.459Z,91904
2016-06-23T05:52:35.888Z,90848
2016-06-23T05:53:36.523Z,90464
2016-06-23T05:54:37.795Z,89152
2016-06-23T05:55:36.608Z,88000
2016-06-23T05:56:37.259Z,88032
2016-06-23T05:57:36.066Z,90144
2016-06-23T05:58:36.731Z,91136
2016-06-23T05:59:36.759Z,89088
2016-06-23T06:01:36.833Z,85056
2016-06-23T06:02:52.365Z,89984
2016-06-23T06:03:36.897Z,90976
2016-06-23T06:04:37.558Z,90624
2016-06-23T06:05:36.990Z,86752
2016-06-23T06:06:38.272Z,85792
2016-06-23T06:07:37.653Z,88096
2016-06-23T06:08:37.721Z,88768
2016-06-23T06:09:36.523Z,84928
2016-06-23T06:10:37.794Z,81728
2016-06-23T06:11:37.819Z,81696
2016-06-23T06:12:36.623Z,82528
2016-06-23T06:13:52.172Z,81472
2016-06-23T06:14:37.331Z,79296
2016-06-23T06:15:38.571Z,80512
2016-06-23T06:16:52.278Z,81504
2016-06-23T06:17:38.043Z,83552
2016-06-23T06:18:37.468Z,85120
2016-06-23T06:19:37.510Z,85472
2016-06-23T06:21:38.202Z,84544
2016-06-23T06:22:38.855Z,82624
2016-06-23T06:24:37.079Z,77888
2016-06-23T06:25:37.735Z,79040
2016-06-23T06:26:37.158Z,82464
2016-06-23T06:27:39.049Z,85248
2016-06-23T06:28:39.056Z,83424
2016-06-23T06:29:39.124Z,80704
2016-06-23T06:30:37.915Z,81728
2016-06-23T06:31:52.246Z,83680
2016-06-23T06:32:38.603Z,82784
2016-06-23T06:33:53.530Z,80928
2016-06-23T06:34:53.572Z,74688
2016-06-23T06:35:53.615Z,69792
2016-06-23T06:36:38.767Z,69664
2016-06-23T06:37:52.472Z,77440
2016-06-23T06:38:53.110Z,79456
2016-06-23T06:40:53.801Z,77728
2016-06-23T06:41:53.239Z,76672
2016-06-23T06:42:38.382Z,75616
2016-06-23T06:43:38.420Z,74400
2016-06-23T06:44:39.081Z,76128
2016-06-23T06:45:53.396Z,78688
2016-06-23T06:46:39.157Z,79072
2016-06-23T06:48:39.226Z,68864
2016-06-23T06:49:39.879Z,69984
2016-06-23T06:50:54.198Z,74688
2016-06-23T06:52:38.775Z,74112
2016-06-23T06:53:39.421Z,73280
2016-06-23T06:54:40.075Z,73920
2016-06-23T06:55:38.278Z,73312
2016-06-23T06:56:38.312Z,74912
2016-06-23T06:57:39.599Z,74144
2016-06-23T06:58:39.613Z,72160
2016-06-23T06:59:39.644Z,72352
2016-06-23T07:00:39.687Z,69568
2016-06-23T07:01:40.343Z,69120
2016-06-23T07:02:39.785Z,71488
2016-06-23T07:04:39.257Z,71040
2016-06-23T07:05:39.922Z,69632
2016-06-23T07:06:39.939Z,67808
2016-06-23T07:07:39.945Z,68512
2016-06-23T07:08:39.394Z,69888
2016-06-23T07:09:38.817Z,69728
2016-06-23T07:10:40.669Z,66400
2016-06-23T07:11:55.018Z,66016
2016-06-23T07:12:40.775Z,68736
2016-06-23T07:13:40.186Z,67904
2016-06-23T07:14:53.908Z,68576
2016-06-23T07:15:40.267Z,72000
2016-06-23T07:16:40.933Z,71424
2016-06-23T07:19:54.089Z,67168
2016-06-23T07:20:40.454Z,65792
2016-06-23T07:21:40.515Z,67264
2016-06-23T07:22:39.984Z,67136
2016-06-23T07:23:54.858Z,64384
2016-06-23T07:24:40.653Z,65472
2016-06-23T07:25:40.058Z,64672
2016-06-23T07:26:40.092Z,65568
2016-06-23T07:27:40.125Z,69280
2016-06-23T07:28:40.782Z,69824
2016-06-23T07:29:41.434Z,67776
2016-06-23T07:30:40.849Z,65856
2016-06-23T07:31:41.815Z,66464
2016-06-23T07:32:40.955Z,66528
2016-06-23T07:33:40.967Z,66400
2016-06-23T07:34:41.027Z,65952
2016-06-23T07:35:55.948Z,67904
2016-06-23T07:36:41.119Z,70176
2016-06-23T07:37:54.794Z,69120
2016-06-23T07:38:39.968Z,66432
2016-06-23T07:40:41.247Z,67360
2016-06-23T07:41:41.891Z,71008
2016-06-23T07:42:41.942Z,68032
2016-06-23T07:43:41.403Z,64640
2016-06-23T07:44:40.819Z,67840
2016-06-23T07:45:40.832Z,68576
2016-06-23T07:46:41.477Z,65344
2016-06-23T07:48:41.550Z,64608
2016-06-23T07:49:40.957Z,61888
2016-06-23T07:50:42.227Z,63040
2016-06-23T07:51:56.546Z,70656
2016-06-23T07:52:41.703Z,64288
2016-06-23T07:53:41.745Z,58144
2016-06-23T07:54:42.399Z,62208
2016-06-23T07:55:42.434Z,61888
2016-06-23T07:56:55.511Z,61600
2016-06-23T07:57:40.682Z,61152
2016-06-23T07:58:42.541Z,60416
2016-06-23T07:59:41.349Z,60384
2016-06-23T08:00:41.395Z,60608
2016-06-23T08:01:42.664Z,60320
2016-06-23T08:02:42.092Z,60320
2016-06-23T08:03:42.134Z,55264
2016-06-23T08:04:41.524Z,44768
2016-06-23T08:05:42.185Z,26528
2016-06-23T08:06:56.516Z,18400
2016-06-23T08:07:41.646Z,17760
2016-06-23T08:09:57.095Z,17112
2016-06-23T08:10:42.400Z,17100
2016-06-23T08:11:41.802Z,17004
2016-06-23T08:12:41.860Z,17008
2016-06-23T08:13:42.485Z,16752
2016-06-23T08:14:41.965Z,16780
2016-06-23T08:15:41.965Z,16840
2016-06-23T08:16:42.619Z,16640
2016-06-23T08:17:42.659Z,16468
2016-06-23T08:18:42.690Z,16460
2016-06-23T08:19:42.778Z,16348
2016-06-23T08:20:42.227Z,16420
2016-06-23T08:21:56.469Z,16340
2016-06-23T08:22:42.220Z,16268
2016-06-23T08:23:42.878Z,16088
2016-06-23T08:24:43.591Z,16196
2016-06-23T08:25:57.227Z,16228
2016-06-23T08:26:42.990Z,16184
2016-06-23T08:27:57.305Z,16212
2016-06-23T08:29:41.878Z,16076
2016-06-23T08:30:43.167Z,16016
2016-06-23T08:31:43.801Z,16036
2016-06-23T08:32:43.220Z,16020
2016-06-23T08:33:57.534Z,15800
2016-06-23T08:34:43.903Z,15796
2016-06-23T08:35:42.707Z,15780
2016-06-23T08:36:42.143Z,15752
2016-06-23T08:37:57.079Z,15692
2016-06-23T08:38:57.702Z,15608
2016-06-23T08:39:43.474Z,15520
2016-06-23T08:40:43.529Z,15460
2016-06-23T08:41:42.335Z,15516
2016-06-23T08:42:43.606Z,15412
2016-06-23T08:43:44.257Z,15260
2016-06-23T08:44:57.331Z,15304
2016-06-23T08:45:44.325Z,15292
2016-06-23T08:46:43.749Z,15252
2016-06-23T08:47:57.482Z,15184
2016-06-23T08:48:43.819Z,15100
2016-06-23T08:49:43.853Z,15056
2016-06-23T08:50:43.288Z,14820
2016-06-23T08:51:42.725Z,14744
2016-06-23T08:52:44.014Z,14792
2016-06-23T08:53:43.388Z,14912
2016-06-23T08:55:44.070Z,14872
2016-06-23T08:56:42.894Z,14784
2016-06-23T08:57:44.763Z,14784
2016-06-23T08:58:58.462Z,14744
2016-06-23T08:59:43.014Z,14732
2016-06-23T09:00:43.642Z,14640
2016-06-23T09:01:43.676Z,14584
2016-06-23T09:02:58.646Z,14516
2016-06-23T09:03:43.758Z,14464
2016-06-23T09:04:43.801Z,14336
2016-06-23T09:05:44.458Z,14264
2016-06-23T09:06:44.521Z,14236
2016-06-23T09:07:43.918Z,14156
2016-06-23T09:08:45.178Z,14140
2016-06-23T09:09:58.888Z,14188
2016-06-23T09:10:59.531Z,14172
2016-06-23T09:11:59.572Z,14164
2016-06-23T09:12:44.723Z,14132
2016-06-23T09:13:44.147Z,14028
2016-06-23T09:14:44.814Z,13984
2016-06-23T09:15:43.629Z,13908
2016-06-23T09:16:44.881Z,13872
2016-06-23T09:17:44.320Z,13900
2016-06-23T09:18:45.563Z,13840
2016-06-23T09:19:44.380Z,13828
2016-06-23T09:20:45.634Z,13740
2016-06-23T09:21:44.455Z,13624
2016-06-23T09:22:45.694Z,13548
2016-06-23T09:23:45.120Z,13536
2016-06-23T09:24:45.995Z,13456
2016-06-23T09:25:58.866Z,13360
2016-06-23T09:27:13.786Z,13264
2016-06-23T09:28:45.910Z,13240
2016-06-23T09:29:44.763Z,13260
2016-06-23T09:30:45.389Z,13232
2016-06-23T09:31:46.038Z,13144
2016-06-23T09:32:45.451Z,13004
2016-06-23T09:33:44.888Z,12884
2016-06-23T09:34:44.913Z,12792
2016-06-23T09:35:46.210Z,12576
2016-06-23T09:37:00.474Z,12560
2016-06-23T09:37:45.674Z,12620
2016-06-23T09:38:45.048Z,12732
2016-06-23T09:39:45.736Z,12820
2016-06-23T09:42:00.677Z,12500
2016-06-23T09:42:45.817Z,12500
2016-06-23T09:44:00.125Z,12568
2016-06-23T09:44:45.281Z,12476
2016-06-23T09:45:45.318Z,12404
2016-06-23T09:46:45.345Z,12352
2016-06-23T09:47:45.999Z,12376
2016-06-23T09:48:44.816Z,12296
2016-06-23T09:49:46.066Z,12228
2016-06-23T09:50:46.749Z,12228
2016-06-23T09:51:45.554Z,12236
2016-06-23T09:52:46.772Z,12240
2016-06-23T09:55:00.521Z,12176
2016-06-23T09:55:45.671Z,12148
2016-06-23T09:57:46.369Z,11916
2016-06-23T09:59:01.279Z,11972
2016-06-23T09:59:45.822Z,11976
2016-06-23T10:00:46.463Z,11868
2016-06-23T10:01:46.498Z,11888
2016-06-23T10:02:46.530Z,11784
2016-06-23T10:03:45.968Z,11696
2016-06-23T10:04:47.218Z,11668
2016-06-23T10:05:46.639Z,11636
2016-06-23T10:06:46.680Z,11640
2016-06-23T10:07:46.705Z,11588
2016-06-23T10:08:46.738Z,11556
2016-06-23T10:09:46.206Z,11536
2016-06-23T10:11:46.269Z,11420
2016-06-23T10:12:46.263Z,11392
2016-06-23T10:14:01.196Z,11340
2016-06-23T10:14:46.334Z,11340
2016-06-23T10:17:47.059Z,11216
2016-06-23T10:18:46.473Z,11204
2016-06-23T10:19:45.916Z,11132
2016-06-23T10:20:47.188Z,11048
2016-06-23T10:21:47.299Z,11028
2016-06-23T10:22:47.241Z,10960
2016-06-23T10:23:47.251Z,10940
2016-06-23T10:24:46.101Z,10896
2016-06-23T10:26:47.984Z,10708
2016-06-23T10:27:46.186Z,10552
2016-06-23T10:28:46.824Z,10596
2016-06-23T10:30:01.750Z,10664
2016-06-23T10:31:02.397Z,10696
2016-06-23T10:32:02.426Z,10692
2016-06-23T10:32:46.370Z,10588
2016-06-23T10:33:47.013Z,10540
2016-06-23T10:34:47.687Z,10596
2016-06-23T10:35:48.321Z,10516
2016-06-23T10:36:48.407Z,10464
2016-06-23T10:39:02.111Z,10404
2016-06-23T10:40:02.702Z,10352
2016-06-23T10:40:47.243Z,10324
2016-06-23T10:41:48.500Z,10280
2016-06-23T10:42:48.527Z,10236
2016-06-23T10:43:47.941Z,10228
2016-06-23T10:44:47.384Z,10176
2016-06-23T10:46:02.298Z,10156
2016-06-23T10:46:47.433Z,10096
2016-06-23T10:47:48.089Z,10088
2016-06-23T10:48:48.107Z,10028
2016-06-23T10:49:46.929Z,9844
2016-06-23T10:50:48.791Z,9836
2016-06-23T10:51:48.835Z,9768
2016-06-23T10:53:02.528Z,9752
2016-06-23T10:53:48.291Z,9736
2016-06-23T10:54:48.945Z,9712
2016-06-23T10:55:47.135Z,9688
2016-06-23T10:56:48.992Z,9608
2016-06-23T10:57:48.435Z,9524
2016-06-23T10:58:47.837Z,9548
2016-06-23T10:59:47.891Z,9436
2016-06-23T11:00:49.139Z,9436
2016-06-23T11:02:02.824Z,9356
2016-06-23T11:02:48.590Z,9320
2016-06-23T11:03:49.219Z,9160
2016-06-23T11:04:48.095Z,9124
2016-06-23T11:05:49.359Z,9064
2016-06-23T11:06:48.721Z,9060
2016-06-23T11:07:48.134Z,9024
2016-06-23T11:08:49.387Z,9032
2016-06-23T11:09:49.431Z,9048
2016-06-23T11:10:49.473Z,9044
2016-06-23T11:11:48.891Z,8988
2016-06-23T11:12:48.328Z,8920
2016-06-23T11:13:48.968Z,8928
2016-06-23T11:14:49.606Z,8780
2016-06-23T11:15:48.414Z,8776
2016-06-23T11:17:03.935Z,8708
2016-06-23T11:17:47.894Z,8668
2016-06-23T11:18:49.126Z,8416
2016-06-23T11:20:04.035Z,8184
2016-06-23T11:20:49.190Z,8096
2016-06-23T11:22:02.923Z,7892
2016-06-23T11:22:49.274Z,7756
2016-06-23T11:23:49.303Z,7584
2016-06-23T11:24:48.789Z,7472
2016-06-23T11:25:49.343Z,7312
2016-06-23T11:26:48.775Z,7168
2016-06-23T11:27:50.038Z,7108
2016-06-23T11:28:49.447Z,6964
2016-06-23T11:29:48.620Z,6852
2016-06-23T11:30:48.303Z,6716
2016-06-23T11:31:48.939Z,6636
2016-06-23T11:32:48.952Z,6536
2016-06-23T11:33:49.623Z,6444
2016-06-23T11:34:49.645Z,6352
2016-06-23T11:36:03.976Z,6284
2016-06-23T11:36:49.698Z,6180
2016-06-23T11:37:49.759Z,6132
2016-06-23T11:39:50.462Z,5984
2016-06-23T11:40:48.611Z,5920
2016-06-23T11:41:49.887Z,5840
2016-06-23T11:42:49.911Z,5816
2016-06-23T11:43:50.558Z,5772
2016-06-23T11:45:50.711Z,5608
2016-06-23T11:46:50.076Z,5608
2016-06-23T11:47:49.482Z,5572
2016-06-23T11:49:04.991Z,5460
2016-06-23T11:49:48.908Z,5432
2016-06-23T11:50:49.555Z,5420
2016-06-23T11:51:50.200Z,5500
2016-06-23T11:52:50.230Z,5428
2016-06-23T11:53:50.268Z,5440
2016-06-23T11:54:49.095Z,5380
2016-06-23T11:55:50.335Z,5360
2016-06-23T11:56:50.359Z,5368
2016-06-23T11:57:50.389Z,5368
2016-06-23T11:58:50.434Z,5300
2016-06-23T11:59:49.846Z,5308
2016-06-23T12:00:50.493Z,5312
2016-06-23T12:01:51.143Z,5256
2016-06-23T12:02:50.544Z,5192
2016-06-23T12:05:04.886Z,5148
2016-06-23T12:05:50.658Z,5208
2016-06-23T12:06:50.105Z,5200
2016-06-23T12:07:50.708Z,5248
2016-06-23T12:08:51.349Z,5148
2016-06-23T12:09:49.567Z,5236
2016-06-23T12:10:50.807Z,5360
2016-06-23T12:11:51.446Z,5420
2016-06-23T12:12:50.882Z,5268
2016-06-23T12:13:50.928Z,5256
2016-06-23T12:14:51.565Z,5348
2016-06-23T12:15:49.737Z,5420
2016-06-23T12:16:51.614Z,5440
2016-06-23T12:17:51.029Z,5536
2016-06-23T12:19:05.336Z,5252
2016-06-23T12:19:50.492Z,5480
2016-06-23T12:21:06.009Z,5608
2016-06-23T12:21:50.562Z,5664
2016-06-23T12:22:51.207Z,5388
2016-06-23T12:23:51.250Z,5100
2016-06-23T12:24:50.663Z,5364
2016-06-23T12:26:51.937Z,6268
2016-06-23T12:27:51.943Z,5492
2016-06-23T12:28:50.161Z,6172
2016-06-23T12:29:51.415Z,6772
2016-06-23T12:30:50.848Z,5460
2016-06-23T12:31:51.487Z,6128
2016-06-23T12:32:50.307Z,6436
2016-06-23T12:34:05.216Z,6496
2016-06-23T12:34:52.204Z,5684
2016-06-23T12:35:51.614Z,6380
2016-06-23T12:37:05.932Z,5600
2016-06-23T12:37:51.074Z,5600
2016-06-23T12:38:51.707Z,8348
2016-06-23T12:39:52.371Z,6256
2016-06-23T12:40:51.168Z,6432
2016-06-23T12:41:51.194Z,7656
2016-06-23T12:42:51.842Z,6484
2016-06-23T12:43:52.511Z,6632
2016-06-23T12:44:51.910Z,6108
2016-06-23T12:45:52.549Z,5932
2016-06-23T12:47:06.854Z,7608
2016-06-23T12:48:05.678Z,7184
2016-06-23T12:49:52.071Z,7980
2016-06-23T12:50:52.112Z,6968
2016-06-23T12:52:05.797Z,6588
2016-06-23T12:53:06.442Z,6948
2016-06-23T12:54:07.069Z,7116
2016-06-23T12:54:52.849Z,6584
2016-06-23T12:55:52.261Z,7848
2016-06-23T12:57:51.720Z,6632
2016-06-23T12:58:52.402Z,5872
2016-06-23T13:00:06.643Z,6248
2016-06-23T13:00:52.410Z,6328
2016-06-23T13:01:53.060Z,6404
2016-06-23T13:02:52.528Z,6516
2016-06-23T13:04:07.395Z,6604
2016-06-23T13:04:52.532Z,7416
2016-06-23T13:05:53.194Z,5488
2016-06-23T13:08:06.912Z,6628
2016-06-23T13:09:06.943Z,7224
2016-06-23T13:09:53.354Z,5964
2016-06-23T13:10:52.107Z,6768
2016-06-23T13:11:52.752Z,6128
2016-06-23T13:12:52.809Z,6580
2016-06-23T13:13:52.851Z,6032
2016-06-23T13:15:52.278Z,6524
2016-06-23T13:16:52.311Z,6084
2016-06-23T13:17:51.739Z,6404
2016-06-23T13:18:52.982Z,7220
2016-06-23T13:19:52.405Z,6924
2016-06-23T13:20:53.053Z,6640
2016-06-23T13:21:52.496Z,6356
2016-06-23T13:22:52.492Z,7212
2016-06-23T13:24:07.414Z,6028
2016-06-23T13:25:07.446Z,6296
2016-06-23T13:25:53.215Z,6832
2016-06-23T13:26:53.217Z,7400
2016-06-23T13:27:53.279Z,6536
2016-06-23T13:28:52.694Z,7224
2016-06-23T13:29:52.732Z,6668
2016-06-23T13:31:54.011Z,4684
2016-06-23T13:32:53.430Z,6560
2016-06-23T13:33:53.482Z,6928
2016-06-23T13:34:54.118Z,5508
2016-06-23T13:36:07.800Z,5892
2016-06-23T13:36:53.557Z,7072
2016-06-23T13:37:53.607Z,5732
2016-06-23T13:38:53.031Z,5268
2016-06-23T13:41:07.959Z,7932
2016-06-23T13:41:54.331Z,6020
2016-06-23T13:42:53.762Z,6296
2016-06-23T13:44:08.049Z,5988
2016-06-23T13:44:53.818Z,5756
2016-06-23T13:45:52.619Z,5872
2016-06-23T13:46:54.487Z,6728
2016-06-23T13:47:53.928Z,6772
2016-06-23T13:49:53.975Z,5336
2016-06-23T13:50:53.392Z,6400
2016-06-23T13:51:54.045Z,6148
2016-06-23T13:52:54.076Z,6232
2016-06-23T13:53:54.725Z,5948
2016-06-23T13:54:54.759Z,6276
2016-06-23T13:56:09.050Z,5756
2016-06-23T13:56:53.580Z,5752
2016-06-23T13:58:07.893Z,5636
2016-06-23T13:58:54.266Z,6276
2016-06-23T13:59:53.681Z,6360
2016-06-23T14:00:53.696Z,5968
2016-06-23T14:01:54.358Z,5844
2016-06-23T14:02:54.404Z,5728
2016-06-23T14:03:55.027Z,6016
2016-06-23T14:04:53.843Z,5864
2016-06-23T14:05:54.481Z,5768
2016-06-23T14:06:53.877Z,5788
2016-06-23T14:07:55.149Z,5856
2016-06-23T14:08:55.198Z,5692
2016-06-23T14:10:08.934Z,5828
2016-06-23T14:10:54.033Z,5744
2016-06-23T14:12:08.937Z,5732
2016-06-23T14:12:54.131Z,5680
2016-06-23T14:13:54.123Z,5804
2016-06-23T14:15:09.030Z,5648